Time;durP1;ratioP1;P1;durP2;ratioP2;P2;SDS_P1;SDS_P2;PMS_P1;PMS_P2;Temp;Humidity;BMP_temperature;BMP_pressure;BME280_temperature;BME280_humidity;BME280_pressure;Samples;Min_cycle;Max_cycle;Signal;HPM_P1;HPM_P2
2022/07/21 00:01:11;;;;;;;0.65;0.45;;;21.60;99.90;;;;;;5113706;28;20039;-85
2022/07/21 00:03:37;;;;;;;0.68;0.40;;;21.60;99.90;;;;;;5113534;28;20075;-87
2022/07/21 00:06:04;;;;;;;0.43;0.30;;;21.60;99.90;;;;;;5130099;28;20036;-81
2022/07/21 00:08:31;;;;;;;0.25;0.20;;;21.60;99.90;;;;;;5129954;28;20044;-87
2022/07/21 00:10:58;;;;;;;2.13;0.60;;;21.60;99.90;;;;;;5165144;27;20046;-86
2022/07/21 00:13:25;;;;;;;0.35;0.30;;;21.50;99.90;;;;;;5164608;27;20081;-86
2022/07/21 00:15:52;;;;;;;0.52;0.38;;;21.60;99.90;;;;;;5164957;27;20131;-86
2022/07/21 00:18:19;;;;;;;0.30;0.30;;;21.60;99.90;;;;;;5164614;27;20089;-86
2022/07/21 00:20:46;;;;;;;0.30;0.30;;;21.60;99.90;;;;;;5130757;28;20131;-86
2022/07/21 00:23:13;;;;;;;0.28;0.28;;;21.60;99.90;;;;;;5147539;28;20040;-81
2022/07/21 00:25:40;;;;;;;0.70;0.50;;;21.60;99.90;;;;;;5147215;28;20085;-82
2022/07/21 00:28:06;;;;;;;1.25;0.50;;;21.50;99.90;;;;;;5114020;28;20484;-86
2022/07/21 00:30:34;;;;;;;0.40;0.40;;;21.50;99.90;;;;;;5113702;28;20400;-82
2022/07/21 00:33:00;;;;;;;0.45;0.45;;;21.50;99.90;;;;;;5113743;28;20032;-81
2022/07/21 00:35:27;;;;;;;0.30;0.28;;;21.50;99.90;;;;;;5130288;28;20492;-81
2022/07/21 00:37:54;;;;;;;0.47;0.40;;;21.40;99.90;;;;;;5147314;28;20046;-82
2022/07/21 00:40:21;;;;;;;0.57;0.50;;;21.50;99.90;;;;;;5147667;28;20127;-86
2022/07/21 00:42:48;;;;;;;0.32;0.32;;;21.40;99.90;;;;;;5147561;28;20080;-83
2022/07/21 00:45:15;;;;;;;0.73;0.50;;;21.40;99.90;;;;;;5181905;27;20035;-87
2022/07/21 00:47:42;;;;;;;0.50;0.40;;;21.30;99.90;;;;;;5113359;28;20046;-87
2022/07/21 00:50:11;;;;;;;0.75;0.50;;;21.20;99.90;;;;;;5147008;28;20096;-87
2022/07/21 00:52:38;;;;;;;0.63;0.50;;;21.00;99.90;;;;;;5130373;28;20048;-83
2022/07/21 00:55:06;;;;;;;0.65;0.47;;;20.70;99.90;;;;;;5131024;28;20042;-88
2022/07/21 00:57:33;;;;;;;0.93;0.43;;;20.70;99.90;;;;;;5146684;28;20047;-83
2022/07/21 01:00:03;;;;;;;0.47;0.40;;;20.50;99.90;;;;;;5147035;28;20040;-87
2022/07/21 01:02:31;;;;;;;1.30;0.80;;;20.40;99.90;;;;;;5130045;28;20040;-81
2022/07/21 01:04:58;;;;;;;1.33;0.52;;;20.30;99.90;;;;;;5128937;28;20101;-82
2022/07/21 01:07:25;;;;;;;0.45;0.43;;;20.30;99.90;;;;;;5129515;28;20036;-82
2022/07/21 01:09:52;;;;;;;0.82;0.60;;;20.30;99.90;;;;;;5113180;28;20147;-85
2022/07/21 01:12:19;;;;;;;0.55;0.50;;;20.30;99.90;;;;;;5129905;28;20407;-86
2022/07/21 01:14:49;;;;;;;0.75;0.60;;;20.20;99.90;;;;;;5095919;28;20123;-86
2022/07/21 01:17:16;;;;;;;1.38;0.50;;;20.20;99.90;;;;;;5129406;28;20046;-81
2022/07/21 01:19:43;;;;;;;0.40;0.30;;;20.20;99.90;;;;;;5163658;28;20044;-86
2022/07/21 01:22:10;;;;;;;0.82;0.50;;;20.20;99.90;;;;;;5146970;28;20044;-82
2022/07/21 01:24:37;;;;;;;1.55;0.80;;;20.20;99.90;;;;;;5129379;28;20035;-82
2022/07/21 01:27:03;;;;;;;0.22;0.20;;;20.10;99.90;;;;;;5163287;28;20119;-82
2022/07/21 01:29:30;;;;;;;0.30;0.30;;;20.10;99.90;;;;;;5146580;28;20131;-82
2022/07/21 01:31:57;;;;;;;0.75;0.45;;;20.00;99.90;;;;;;5123017;28;20040;-87
2022/07/21 01:34:24;;;;;;;0.93;0.50;;;20.00;99.90;;;;;;5144039;28;20046;-86
2022/07/21 01:36:50;;;;;;;1.00;0.45;;;20.00;99.90;;;;;;5145292;28;20096;-82
2022/07/21 01:42:03;;;;;;;0.60;0.50;;;20.00;99.90;;;;;;5164677;27;20082;-82
2022/07/21 01:44:30;;;;;;;1.02;0.82;;;20.00;99.90;;;;;;5150058;28;20123;-87
2022/07/21 01:46:57;;;;;;;0.60;0.40;;;20.00;99.90;;;;;;5133426;28;20075;-82
2022/07/21 01:49:23;;;;;;;0.38;0.30;;;20.00;99.90;;;;;;5120092;28;20039;-86
2022/07/21 01:51:51;;;;;;;0.68;0.35;;;20.00;99.90;;;;;;5116097;28;20074;-81
2022/07/21 01:54:18;;;;;;;0.30;0.30;;;19.90;99.90;;;;;;5132717;28;20405;-86
2022/07/21 01:56:44;;;;;;;0.98;0.60;;;19.80;99.90;;;;;;5132649;28;20032;-82
2022/07/21 01:59:11;;;;;;;0.50;0.40;;;19.80;99.90;;;;;;5150049;28;20638;-86
2022/07/21 02:01:38;;;;;;;0.22;0.22;;;19.80;99.90;;;;;;5150424;28;20389;-86
2022/07/21 02:04:05;;;;;;;0.98;0.60;;;19.80;99.90;;;;;;5115595;28;20112;-82
2022/07/21 02:06:32;;;;;;;1.35;0.57;;;19.70;99.90;;;;;;5149397;27;20040;-82
2022/07/21 02:08:59;;;;;;;0.57;0.30;;;19.70;99.90;;;;;;5132765;28;20268;-87
2022/07/21 02:11:27;;;;;;;0.38;0.30;;;19.80;99.90;;;;;;5132695;28;20585;-87
2022/07/21 02:13:54;;;;;;;0.30;0.28;;;19.70;99.90;;;;;;5132992;28;20032;-86
2022/07/21 02:16:20;;;;;;;0.73;0.40;;;19.70;99.90;;;;;;5149223;28;20403;-82
2022/07/21 02:18:47;;;;;;;0.40;0.40;;;19.70;99.90;;;;;;5132506;28;20039;-86
2022/07/21 02:21:14;;;;;;;0.35;0.32;;;19.70;99.90;;;;;;5132411;28;20150;-82
2022/07/21 02:23:41;;;;;;;0.22;0.22;;;19.70;99.90;;;;;;5132328;28;20069;-86
2022/07/21 02:26:07;;;;;;;0.73;0.45;;;19.70;99.90;;;;;;5132420;28;20036;-87
2022/07/21 02:28:34;;;;;;;0.82;0.45;;;19.70;99.90;;;;;;5166901;27;20032;-82
2022/07/21 02:31:01;;;;;;;0.45;0.30;;;19.70;99.90;;;;;;5131980;28;20123;-82
2022/07/21 02:33:28;;;;;;;0.75;0.57;;;19.70;99.90;;;;;;5147519;28;20105;-87
2022/07/21 02:35:54;;;;;;;1.02;0.65;;;19.80;99.90;;;;;;5129049;28;20040;-82
2022/07/21 02:38:21;;;;;;;0.63;0.50;;;19.70;99.90;;;;;;5128479;28;20056;-87
2022/07/21 02:40:48;;;;;;;0.47;0.38;;;19.70;99.90;;;;;;5135023;28;20050;-82
2022/07/21 02:43:15;;;;;;;0.45;0.32;;;19.70;99.90;;;;;;5131954;28;20040;-86
2022/07/21 02:45:43;;;;;;;0.77;0.57;;;19.70;99.90;;;;;;5116228;28;20035;-86
2022/07/21 02:48:12;;;;;;;0.57;0.45;;;19.70;99.90;;;;;;5098413;28;20051;-82
2022/07/21 02:50:41;;;;;;;0.50;0.50;;;19.70;99.90;;;;;;5131326;28;20408;-82
2022/07/21 02:53:14;;;;;;;0.40;0.38;;;19.70;99.90;;;;;;5166158;27;20039;-86
2022/07/21 02:55:40;;;;;;;0.65;0.47;;;19.60;99.90;;;;;;5166343;27;20035;-82
2022/07/21 02:58:15;;;;;;;0.43;0.30;;;19.60;99.90;;;;;;5182492;27;20046;-82
2022/07/21 03:00:56;;;;;;;0.75;0.50;;;19.60;99.90;;;;;;5131506;28;20123;-82
2022/07/21 03:03:24;;;;;;;0.35;0.22;;;19.60;99.90;;;;;;5131159;28;20396;-86
2022/07/21 03:05:51;;;;;;;0.57;0.30;;;19.60;99.90;;;;;;5126765;28;20471;-82
2022/07/21 03:08:19;;;;;;;0.70;0.55;;;19.70;99.90;;;;;;5115186;28;20042;-82
2022/07/21 03:10:46;;;;;;;0.70;0.60;;;19.60;99.90;;;;;;5131758;28;20512;-82
2022/07/21 03:13:14;;;;;;;0.35;0.35;;;19.60;99.90;;;;;;5114707;28;20078;-86
2022/07/21 03:15:40;;;;;;;0.38;0.30;;;19.60;99.90;;;;;;5132125;28;20044;-87
2022/07/21 03:18:07;;;;;;;0.68;0.57;;;19.60;99.90;;;;;;5114603;28;20176;-86
2022/07/21 03:20:37;;;;;;;0.63;0.45;;;19.60;99.90;;;;;;5114828;28;20140;-82
2022/07/21 03:23:04;;;;;;;1.05;0.65;;;19.60;99.90;;;;;;5130833;28;20039;-86
2022/07/21 03:25:31;;;;;;;2.20;0.50;;;19.50;99.90;;;;;;5114655;28;20031;-82
2022/07/21 03:27:58;;;;;;;0.38;0.38;;;19.60;99.90;;;;;;5148385;28;20031;-82
2022/07/21 03:30:26;;;;;;;1.20;0.73;;;19.60;99.90;;;;;;5130794;28;20039;-86
2022/07/21 03:32:53;;;;;;;0.65;0.55;;;19.60;99.90;;;;;;5147459;28;20044;-82
2022/07/21 03:35:20;;;;;;;0.57;0.40;;;19.60;99.90;;;;;;5147118;28;20427;-82
2022/07/21 03:37:55;;;;;;;0.80;0.60;;;19.60;99.90;;;;;;5130770;28;20484;-86
2022/07/21 03:40:24;;;;;;;1.02;0.50;;;19.60;99.90;;;;;;5131225;28;20489;-87
2022/07/21 03:42:54;;;;;;;0.75;0.63;;;19.60;99.90;;;;;;5147283;28;20035;-86
2022/07/21 03:45:22;;;;;;;0.70;0.60;;;19.50;99.90;;;;;;5131419;28;20042;-86
2022/07/21 03:47:49;;;;;;;0.55;0.40;;;19.50;99.90;;;;;;5110455;28;20397;-82
2022/07/21 03:50:19;;;;;;;0.50;0.50;;;19.50;99.90;;;;;;5126522;28;20043;-81
2022/07/21 03:52:45;;;;;;;0.30;0.30;;;19.50;99.90;;;;;;5109866;28;20051;-82
2022/07/21 03:55:17;;;;;;;0.68;0.50;;;19.50;99.90;;;;;;5109971;28;20035;-82
2022/07/21 03:58:04;;;;;;;0.90;0.47;;;19.50;99.90;;;;;;5141166;28;20084;-86
2022/07/21 04:00:35;;;;;;;0.43;0.40;;;19.50;99.90;;;;;;5130020;28;20039;-86
2022/07/21 04:03:01;;;;;;;0.60;0.60;;;19.50;99.90;;;;;;5129715;28;20046;-86
2022/07/21 04:05:29;;;;;;;0.70;0.52;;;19.40;99.90;;;;;;5129487;28;20039;-81
2022/07/21 04:07:56;;;;;;;0.60;0.50;;;19.50;99.90;;;;;;5108149;28;20040;-82
2022/07/21 04:10:26;;;;;;;0.95;0.75;;;19.50;99.90;;;;;;5109209;28;20181;-82
2022/07/21 04:12:54;;;;;;;1.23;0.70;;;19.50;99.90;;;;;;5127003;28;20489;-86
2022/07/21 04:15:20;;;;;;;0.63;0.60;;;19.40;99.90;;;;;;5130245;28;20050;-82
2022/07/21 04:17:48;;;;;;;0.43;0.43;;;19.40;99.90;;;;;;5113610;28;20032;-86
2022/07/21 04:20:15;;;;;;;0.38;0.35;;;19.50;99.90;;;;;;5130306;28;20132;-86
2022/07/21 04:22:44;;;;;;;0.32;0.30;;;19.50;99.90;;;;;;5113392;28;20042;-86
2022/07/21 04:25:10;;;;;;;0.52;0.30;;;19.40;99.90;;;;;;5147564;28;20042;-87
2022/07/21 04:27:37;;;;;;;0.63;0.50;;;19.40;99.90;;;;;;5130334;28;20126;-82
2022/07/21 04:30:06;;;;;;;0.82;0.65;;;19.40;99.90;;;;;;5129869;28;20078;-82
2022/07/21 04:32:33;;;;;;;0.40;0.30;;;19.40;99.90;;;;;;5147137;28;20098;-82
2022/07/21 04:35:04;;;;;;;0.57;0.32;;;19.40;99.90;;;;;;5112932;28;20149;-85
2022/07/21 04:37:31;;;;;;;0.63;0.40;;;19.40;99.90;;;;;;5129835;28;20100;-82
2022/07/21 04:39:58;;;;;;;0.60;0.60;;;19.40;99.90;;;;;;5113434;28;20044;-82
2022/07/21 04:42:26;;;;;;;0.30;0.30;;;19.40;99.90;;;;;;5130110;28;20039;-85
2022/07/21 04:44:52;;;;;;;1.45;0.80;;;19.50;99.90;;;;;;5130305;28;20116;-82
2022/07/21 04:47:19;;;;;;;0.82;0.52;;;19.50;99.90;;;;;;5113031;28;20353;-86
2022/07/21 04:49:46;;;;;;;0.47;0.35;;;19.50;99.90;;;;;;5135308;28;20042;-86
2022/07/21 04:52:13;;;;;;;0.47;0.47;;;19.50;99.90;;;;;;5126700;28;20051;-87
2022/07/21 04:54:39;;;;;;;0.60;0.50;;;19.50;99.90;;;;;;5129155;28;20135;-81
2022/07/21 04:57:07;;;;;;;0.40;0.40;;;19.40;99.90;;;;;;5101487;28;20036;-82
2022/07/21 04:59:34;;;;;;;0.45;0.40;;;19.40;99.90;;;;;;5161374;28;20036;-82
2022/07/21 05:02:02;;;;;;;0.68;0.35;;;19.40;99.90;;;;;;5118968;28;20040;-87
2022/07/21 05:04:28;;;;;;;0.70;0.43;;;19.40;99.90;;;;;;5138250;28;20048;-82
2022/07/21 05:06:56;;;;;;;0.73;0.50;;;19.40;99.90;;;;;;5142417;28;20032;-87
2022/07/21 05:09:23;;;;;;;0.70;0.52;;;19.40;99.90;;;;;;5158394;28;20038;-82
2022/07/21 05:11:50;;;;;;;0.68;0.60;;;19.50;99.90;;;;;;5147416;28;20047;-82
2022/07/21 05:14:17;;;;;;;0.57;0.45;;;19.50;99.90;;;;;;5133687;28;20035;-87
2022/07/21 05:16:43;;;;;;;0.45;0.30;;;19.50;99.90;;;;;;5150651;28;20042;-82
2022/07/21 05:19:10;;;;;;;0.68;0.52;;;19.50;99.90;;;;;;5133036;28;20043;-82
2022/07/21 05:21:37;;;;;;;0.52;0.43;;;19.40;99.90;;;;;;5116471;28;20527;-86
2022/07/21 05:24:04;;;;;;;0.55;0.50;;;19.40;99.90;;;;;;5095127;28;20101;-82
2022/07/21 05:26:31;;;;;;;0.70;0.50;;;19.50;99.90;;;;;;5195637;27;20119;-82
2022/07/21 05:28:57;;;;;;;0.60;0.40;;;19.60;99.90;;;;;;5144897;28;20549;-87
2022/07/21 05:31:24;;;;;;;1.08;0.63;;;19.60;99.90;;;;;;5167288;27;20066;-87
2022/07/21 05:33:51;;;;;;;0.55;0.43;;;19.60;99.90;;;;;;5133745;28;20048;-82
2022/07/21 05:36:21;;;;;;;0.40;0.40;;;19.70;99.90;;;;;;5147007;28;20101;-82
2022/07/21 05:38:47;;;;;;;0.98;0.68;;;19.70;99.90;;;;;;5148971;27;20560;-82
2022/07/21 05:41:14;;;;;;;0.63;0.47;;;19.70;99.90;;;;;;5083104;28;20131;-82
2022/07/21 05:43:41;;;;;;;0.88;0.60;;;19.80;99.90;;;;;;5130231;28;20040;-82
2022/07/21 05:46:07;;;;;;;0.47;0.40;;;19.80;99.90;;;;;;5115359;28;20781;-82
2022/07/21 05:48:34;;;;;;;1.33;0.88;;;19.80;99.90;;;;;;5124953;28;20048;-82
2022/07/21 05:51:01;;;;;;;1.20;0.77;;;19.80;99.90;;;;;;5126811;28;20035;-86
2022/07/21 05:53:28;;;;;;;0.68;0.60;;;19.80;99.90;;;;;;5143504;28;20043;-86
2022/07/21 05:55:54;;;;;;;1.50;0.70;;;19.80;99.90;;;;;;5133274;28;20135;-86
2022/07/21 05:58:24;;;;;;;0.35;0.30;;;19.80;99.90;;;;;;5149937;28;20040;-82
2022/07/21 06:01:09;;;;;;;0.82;0.60;;;19.90;99.90;;;;;;5148123;28;20039;-81
2022/07/21 06:03:45;;;;;;;1.08;0.70;;;19.90;99.90;;;;;;5166664;27;20043;-86
2022/07/21 06:06:13;;;;;;;0.93;0.63;;;19.90;99.90;;;;;;5132706;28;20036;-84
2022/07/21 06:08:44;;;;;;;1.08;0.60;;;19.90;99.90;;;;;;5132328;28;20041;-83
2022/07/21 06:11:13;;;;;;;0.73;0.60;;;19.90;99.90;;;;;;5150278;27;20046;-85
2022/07/21 06:13:40;;;;;;;1.70;0.60;;;19.90;99.90;;;;;;5128961;28;20131;-82
2022/07/21 06:16:07;;;;;;;0.57;0.57;;;19.90;99.90;;;;;;5145954;28;20048;-82
2022/07/21 06:18:34;;;;;;;0.68;0.45;;;19.90;99.90;;;;;;5111743;28;20046;-86
2022/07/21 06:21:02;;;;;;;1.17;0.63;;;19.90;99.90;;;;;;5095299;28;20051;-86
2022/07/21 06:23:29;;;;;;;0.90;0.57;;;19.90;99.90;;;;;;5125940;28;20027;-86
2022/07/21 06:25:56;;;;;;;1.23;0.80;;;19.90;99.90;;;;;;5149694;28;20493;-86
2022/07/21 06:28:23;;;;;;;0.93;0.85;;;19.90;99.90;;;;;;5118440;28;20039;-82
2022/07/21 06:30:50;;;;;;;0.43;0.43;;;20.00;99.90;;;;;;5145877;28;20044;-82
2022/07/21 06:33:17;;;;;;;1.00;0.68;;;20.10;99.90;;;;;;5179328;27;20054;-86
2022/07/21 06:35:44;;;;;;;1.55;0.80;;;20.10;99.90;;;;;;5132474;28;20039;-82
2022/07/21 06:38:10;;;;;;;0.93;0.60;;;20.10;99.90;;;;;;5098759;28;20044;-87
2022/07/21 06:40:37;;;;;;;0.95;0.70;;;20.10;99.90;;;;;;5115575;28;20047;-82
2022/07/21 06:43:04;;;;;;;1.17;0.60;;;20.10;99.90;;;;;;5116542;28;20035;-86
2022/07/21 06:45:30;;;;;;;1.38;0.88;;;20.20;99.90;;;;;;5132112;28;20036;-86
2022/07/21 06:48:05;;;;;;;0.93;0.68;;;20.20;99.90;;;;;;5143216;28;20040;-82
2022/07/21 06:50:32;;;;;;;1.42;1.10;;;20.20;99.90;;;;;;5148460;28;20039;-83
2022/07/21 06:52:59;;;;;;;0.55;0.47;;;20.30;99.90;;;;;;5132468;28;20050;-87
2022/07/21 06:55:27;;;;;;;0.93;0.65;;;20.30;99.90;;;;;;5114242;28;20036;-82
2022/07/21 06:57:54;;;;;;;1.02;0.77;;;20.30;99.90;;;;;;5147879;28;20103;-85
2022/07/21 07:00:21;;;;;;;0.47;0.43;;;20.30;99.90;;;;;;5145709;28;20040;-85
2022/07/21 07:02:47;;;;;;;1.58;0.93;;;20.40;99.90;;;;;;5111535;28;20032;-84
2022/07/21 07:05:14;;;;;;;1.52;0.80;;;20.30;99.90;;;;;;5131202;28;20042;-82
2022/07/21 07:07:41;;;;;;;1.25;0.70;;;20.30;99.90;;;;;;5114194;28;20088;-82
2022/07/21 07:10:08;;;;;;;0.98;0.70;;;20.40;99.90;;;;;;5114941;28;20044;-82
2022/07/21 07:12:36;;;;;;;1.00;0.80;;;20.30;99.90;;;;;;5114280;28;20039;-82
2022/07/21 07:15:03;;;;;;;2.10;1.02;;;20.30;99.90;;;;;;5148324;28;20122;-85
2022/07/21 07:17:37;;;;;;;1.65;1.10;;;20.30;99.90;;;;;;5116646;28;20123;-84
2022/07/21 07:20:06;;;;;;;0.60;0.50;;;20.30;99.90;;;;;;5116210;28;20039;-85
2022/07/21 07:22:33;;;;;;;1.27;0.88;;;20.30;99.90;;;;;;5131366;28;20038;-91
2022/07/21 07:24:59;;;;;;;0.88;0.65;;;20.20;99.90;;;;;;5145079;27;20055;-92
2022/07/21 07:27:26;;;;;;;1.45;0.90;;;20.20;99.90;;;;;;5132637;28;20035;-89
2022/07/21 07:29:53;;;;;;;1.20;0.80;;;20.10;99.90;;;;;;5130635;28;20043;-87
2022/07/21 07:32:20;;;;;;;1.15;0.73;;;20.10;99.90;;;;;;5125162;28;20040;-86
2022/07/21 07:34:46;;;;;;;0.88;0.73;;;20.00;99.90;;;;;;5137290;28;20130;-88
2022/07/21 07:37:14;;;;;;;1.50;0.80;;;20.00;99.90;;;;;;5130497;28;20081;-89
2022/07/21 07:39:42;;;;;;;1.17;0.77;;;20.00;99.90;;;;;;5130903;28;20044;-87
2022/07/21 07:42:11;;;;;;;1.40;0.90;;;19.90;99.90;;;;;;5131745;28;20031;-87
2022/07/21 07:44:38;;;;;;;1.17;0.80;;;19.90;99.90;;;;;;5148226;28;20040;-87
2022/07/21 07:47:05;;;;;;;1.42;1.00;;;19.80;99.90;;;;;;5148092;28;20512;-87
2022/07/21 07:49:32;;;;;;;0.95;0.73;;;19.80;99.90;;;;;;5128667;28;20039;-91
2022/07/21 07:51:59;;;;;;;1.15;0.85;;;19.80;99.90;;;;;;5131695;28;20039;-91
2022/07/21 07:54:25;;;;;;;1.50;0.90;;;19.80;99.90;;;;;;5132227;28;20043;-91
2022/07/21 07:56:52;;;;;;;1.48;0.95;;;19.70;99.90;;;;;;5147682;28;20038;-86
2022/07/21 07:59:19;;;;;;;1.17;0.75;;;19.70;99.90;;;;;;5165664;27;20043;-91
2022/07/21 08:01:45;;;;;;;1.20;0.80;;;19.70;99.90;;;;;;5147749;28;20038;-91
2022/07/21 08:04:14;;;;;;;1.17;0.80;;;19.80;99.90;;;;;;5117925;28;20047;-91
2022/07/21 08:06:44;;;;;;;0.95;0.68;;;19.70;99.90;;;;;;5158795;27;20480;-86
2022/07/21 08:09:10;;;;;;;1.42;0.85;;;19.80;99.90;;;;;;5136658;28;20040;-87
2022/07/21 08:11:37;;;;;;;1.00;0.68;;;19.80;99.90;;;;;;5141654;28;20040;-91
2022/07/21 08:14:04;;;;;;;1.00;0.68;;;19.80;99.90;;;;;;5131721;28;20587;-91
2022/07/21 08:16:31;;;;;;;0.82;0.68;;;19.80;99.90;;;;;;5097957;28;20112;-88
2022/07/21 08:18:58;;;;;;;1.08;0.65;;;19.90;99.90;;;;;;5148371;28;21679;-86
2022/07/21 08:21:30;;;;;;;0.93;0.63;;;19.90;99.90;;;;;;5097827;28;20042;-88
2022/07/21 08:23:58;;;;;;;1.35;0.98;;;20.00;99.90;;;;;;5164916;27;20091;-91
2022/07/21 08:26:25;;;;;;;0.93;0.63;;;20.00;99.90;;;;;;5148784;28;20035;-91
2022/07/21 08:28:53;;;;;;;1.20;0.88;;;20.20;99.90;;;;;;5130960;28;20047;-89
2022/07/21 08:31:20;;;;;;;1.65;1.00;;;20.40;99.90;;;;;;5131828;28;20039;-91
2022/07/21 08:33:47;;;;;;;1.70;1.08;;;20.60;99.90;;;;;;5131541;28;20047;-90
2022/07/21 08:36:14;;;;;;;1.33;0.88;;;20.80;99.90;;;;;;5131108;28;20040;-89
2022/07/21 08:38:41;;;;;;;1.05;0.77;;;20.90;99.90;;;;;;5131318;28;20078;-87
2022/07/21 08:41:08;;;;;;;0.90;0.70;;;21.30;99.90;;;;;;5123235;28;20070;-89
2022/07/21 08:43:35;;;;;;;1.70;0.98;;;21.50;99.90;;;;;;5114189;28;20046;-88
2022/07/21 08:46:03;;;;;;;1.20;0.88;;;21.80;99.90;;;;;;5113890;28;20076;-86
2022/07/21 08:48:30;;;;;;;2.40;1.63;;;22.00;99.90;;;;;;5133553;28;20036;-89
2022/07/21 08:50:57;;;;;;;1.23;0.95;;;22.00;99.90;;;;;;5151130;28;20050;-85
2022/07/21 08:53:24;;;;;;;1.33;0.88;;;22.10;99.90;;;;;;5137081;28;20073;-89
2022/07/21 08:55:51;;;;;;;1.50;0.90;;;22.20;99.90;;;;;;5128099;28;20044;-88
2022/07/21 08:58:21;;;;;;;1.80;1.08;;;22.30;99.90;;;;;;5142389;28;20048;-89
2022/07/21 09:00:49;;;;;;;1.45;1.00;;;22.30;99.90;;;;;;5149291;28;20043;-89
2022/07/21 09:03:21;;;;;;;2.03;1.17;;;22.20;99.90;;;;;;5152666;27;20032;-86
2022/07/21 09:06:10;;;;;;;1.35;1.02;;;22.10;99.90;;;;;;5132903;28;20438;-88
2022/07/21 09:08:40;;;;;;;1.38;0.90;;;22.10;99.90;;;;;;5169669;27;20035;-87
2022/07/21 09:11:30;;;;;;;2.03;1.17;;;22.10;99.90;;;;;;5130197;28;20044;-86
2022/07/21 09:14:10;;;;;;;1.83;1.20;;;22.10;99.90;;;;;;5134561;28;20896;-88
2022/07/21 09:16:43;;;;;;;2.30;1.50;;;22.30;99.90;;;;;;5150668;28;20039;-86
2022/07/21 09:19:20;;;;;;;2.05;1.20;;;22.20;99.90;;;;;;5157970;27;20079;-85
2022/07/21 09:21:49;;;;;;;1.35;0.93;;;22.30;99.90;;;;;;5131487;28;20039;-86
2022/07/21 09:24:26;;;;;;;2.00;1.15;;;22.30;99.90;;;;;;5133778;28;20039;-88
2022/07/21 09:26:56;;;;;;;1.67;1.20;;;22.30;99.90;;;;;;5129028;28;20533;-88
2022/07/21 09:29:23;;;;;;;1.58;0.80;;;22.40;99.90;;;;;;5168419;27;20059;-86
2022/07/21 09:31:49;;;;;;;1.50;1.10;;;22.40;99.90;;;;;;5141378;28;20067;-88
2022/07/21 09:34:17;;;;;;;1.65;1.02;;;22.40;99.90;;;;;;5151489;28;20446;-89
2022/07/21 09:36:57;;;;;;;2.55;1.52;;;22.50;99.90;;;;;;5101571;28;20040;-86
2022/07/21 09:39:47;;;;;;;1.20;0.95;;;22.50;99.90;;;;;;5108243;28;20398;-86
2022/07/21 09:42:26;;;;;;;2.00;1.35;;;22.60;99.90;;;;;;5127113;28;20406;-88
2022/07/21 09:44:57;;;;;;;1.98;1.30;;;22.80;99.90;;;;;;5121168;28;20039;-88
2022/07/21 09:47:26;;;;;;;1.73;1.10;;;22.70;99.90;;;;;;5083188;28;20040;-88
2022/07/21 09:49:54;;;;;;;1.85;1.13;;;22.80;99.90;;;;;;5140004;28;20040;-89
2022/07/21 09:52:25;;;;;;;1.25;0.75;;;22.80;99.90;;;;;;5110821;28;20560;-86
2022/07/21 09:54:53;;;;;;;1.10;0.80;;;22.80;99.90;;;;;;5083150;28;20076;-86
2022/07/21 09:57:21;;;;;;;1.42;1.00;;;22.70;99.90;;;;;;5066754;28;20041;-86
2022/07/21 09:59:49;;;;;;;1.58;0.93;;;22.60;99.90;;;;;;5065791;28;20032;-87
2022/07/21 10:02:27;;;;;;;2.70;1.20;;;22.60;99.90;;;;;;5073133;28;20041;-86
2022/07/21 10:05:06;;;;;;;1.98;1.27;;;22.50;99.90;;;;;;5079219;28;20082;-88
2022/07/21 10:07:36;;;;;;;2.47;1.27;;;22.50;99.90;;;;;;5085147;28;20397;-89
2022/07/21 10:10:04;;;;;;;1.55;0.98;;;22.40;99.90;;;;;;5115755;28;20041;-87
2022/07/21 10:12:32;;;;;;;2.05;1.38;;;22.30;99.90;;;;;;5117467;28;20102;-87
2022/07/21 10:14:58;;;;;;;1.85;1.20;;;22.10;99.90;;;;;;5092514;28;20051;-88
2022/07/21 10:17:26;;;;;;;1.30;0.85;;;22.00;99.90;;;;;;5104267;28;20413;-91
2022/07/21 10:20:07;;;;;;;1.15;0.77;;;21.90;99.90;;;;;;5074467;28;20501;-88
2022/07/21 10:23:05;;;;;;;1.50;1.15;;;21.70;99.90;;;;;;5123728;28;20041;-89
2022/07/21 10:25:32;;;;;;;1.50;0.93;;;21.80;99.90;;;;;;5079165;28;20498;-92
2022/07/21 10:28:23;;;;;;;1.40;1.00;;;21.80;99.90;;;;;;5107720;28;20512;-91
2022/07/21 10:30:55;;;;;;;2.50;1.50;;;21.80;99.90;;;;;;5074751;28;20090;-88
2022/07/21 10:34:01;;;;;;;1.90;1.23;;;21.80;99.90;;;;;;5091282;28;20040;-89
2022/07/21 10:36:27;;;;;;;1.23;0.90;;;21.90;99.90;;;;;;5115338;28;20083;-87
2022/07/21 10:39:07;;;;;;;1.63;1.10;;;21.90;99.90;;;;;;5096717;28;20051;-91
2022/07/21 10:41:42;;;;;;;1.92;1.10;;;21.90;99.90;;;;;;5125361;28;20067;-87
2022/07/21 10:44:28;;;;;;;2.33;1.35;;;21.90;99.90;;;;;;5133142;28;20566;-89
2022/07/21 10:47:11;;;;;;;1.88;1.10;;;21.80;99.90;;;;;;5165693;27;20040;-87
2022/07/21 10:49:45;;;;;;;1.88;1.40;;;21.90;99.90;;;;;;5126002;28;20508;-91
2022/07/21 10:52:41;;;;;;;1.50;1.00;;;21.90;99.90;;;;;;5153804;27;20040;-92
2022/07/21 10:55:11;;;;;;;1.67;1.10;;;21.90;99.90;;;;;;5127256;28;20039;-94
2022/07/21 10:57:43;;;;;;;1.83;1.33;;;22.00;99.90;;;;;;5129680;28;20039;-91
2022/07/21 11:00:20;;;;;;;2.08;1.25;;;21.90;99.90;;;;;;5133070;28;20053;-90
2022/07/21 11:03:08;;;;;;;1.48;1.10;;;21.80;99.90;;;;;;5166923;27;20063;-93
2022/07/21 11:05:35;;;;;;;3.22;1.13;;;21.70;99.90;;;;;;5162942;27;20691;-89
2022/07/21 11:08:21;;;;;;;1.38;0.90;;;21.70;99.90;;;;;;5136328;28;20066;-91
2022/07/21 11:10:51;;;;;;;1.48;0.88;;;21.70;99.90;;;;;;5150363;27;20466;-90
2022/07/21 11:13:22;;;;;;;1.55;1.00;;;21.60;99.90;;;;;;5156444;27;20112;-93
2022/07/21 11:16:00;;;;;;;1.27;0.95;;;21.70;99.90;;;;;;5131938;28;20036;-90
2022/07/21 11:18:29;;;;;;;1.05;0.80;;;21.60;99.90;;;;;;5130989;28;20119;-90
2022/07/21 11:21:12;;;;;;;1.48;0.90;;;21.70;99.90;;;;;;5130896;28;20467;-93
2022/07/21 11:23:39;;;;;;;2.42;1.13;;;21.70;99.90;;;;;;5125689;28;20089;-93
2022/07/21 11:26:07;;;;;;;1.35;0.90;;;21.70;99.90;;;;;;5132391;28;20039;-90
2022/07/21 11:28:33;;;;;;;1.15;0.77;;;21.80;99.90;;;;;;5126278;28;20036;-93
2022/07/21 11:31:06;;;;;;;2.35;1.33;;;21.80;99.90;;;;;;5130533;28;20091;-92
2022/07/21 11:33:37;;;;;;;1.85;1.17;;;21.80;99.90;;;;;;5163967;27;20046;-93
2022/07/21 11:36:04;;;;;;;2.38;1.38;;;21.70;99.90;;;;;;5122358;28;20043;-92
2022/07/21 11:38:31;;;;;;;1.27;0.90;;;21.40;99.90;;;;;;5145040;28;20059;-90
2022/07/21 11:41:15;;;;;;;2.03;1.30;;;21.20;99.90;;;;;;5140987;28;20044;-88
2022/07/21 11:43:43;;;;;;;1.73;1.27;;;21.10;99.90;;;;;;5120854;28;20484;-89
2022/07/21 11:46:10;;;;;;;1.55;0.95;;;20.90;99.90;;;;;;5115365;28;20043;-90
2022/07/21 11:48:38;;;;;;;2.05;1.48;;;20.80;99.90;;;;;;5131452;28;20504;-91
2022/07/21 11:51:06;;;;;;;2.10;1.30;;;20.80;99.90;;;;;;5132086;28;20039;-93
2022/07/21 11:53:33;;;;;;;2.42;1.50;;;20.70;99.90;;;;;;5132758;28;20040;-92
2022/07/21 11:56:00;;;;;;;2.30;1.52;;;20.70;99.90;;;;;;5131468;28;20395;-90
2022/07/21 11:58:27;;;;;;;1.58;1.10;;;20.60;99.90;;;;;;5124890;28;20046;-91
2022/07/21 12:01:07;;;;;;;1.20;0.85;;;20.70;99.90;;;;;;5098039;28;20105;-86
2022/07/21 12:03:34;;;;;;;2.35;1.50;;;20.70;99.90;;;;;;5136223;28;20037;-89
2022/07/21 12:06:01;;;;;;;1.73;1.13;;;20.80;99.90;;;;;;5150463;27;20122;-90
2022/07/21 12:08:29;;;;;;;2.45;1.13;;;21.00;99.90;;;;;;5112045;28;20752;-91
2022/07/21 12:11:10;;;;;;;2.17;1.52;;;21.10;99.90;;;;;;5131251;28;20046;-89
2022/07/21 12:13:57;;;;;;;1.77;1.20;;;21.20;99.90;;;;;;5122671;28;20066;-89
2022/07/21 12:16:25;;;;;;;2.58;1.50;;;21.30;99.90;;;;;;5110686;28;20062;-91
2022/07/21 12:19:14;;;;;;;2.35;1.40;;;21.50;99.90;;;;;;5094708;28;20043;-88
2022/07/21 12:21:52;;;;;;;2.15;1.52;;;21.60;99.90;;;;;;5146378;28;20070;-88
2022/07/21 12:24:21;;;;;;;2.17;1.30;;;21.70;99.90;;;;;;5114023;28;20038;-89
2022/07/21 12:26:48;;;;;;;2.90;1.95;;;21.90;99.90;;;;;;5131614;28;20381;-88
2022/07/21 12:29:28;;;;;;;2.90;1.40;;;22.00;99.90;;;;;;5114224;28;20097;-89
2022/07/21 12:31:56;;;;;;;2.22;1.40;;;22.10;99.90;;;;;;5114937;28;20036;-89
2022/07/21 12:34:24;;;;;;;2.30;1.50;;;22.30;99.90;;;;;;5097207;28;20031;-90
2022/07/21 12:36:50;;;;;;;1.98;1.27;;;22.30;99.90;;;;;;5114255;28;20036;-89
2022/07/21 12:39:55;;;;;;;2.30;1.30;;;22.60;99.90;;;;;;5131030;28;20058;-89
2022/07/21 12:42:29;;;;;;;2.92;1.70;;;22.60;99.90;;;;;;5147879;28;20507;-88
2022/07/21 12:44:56;;;;;;;2.13;1.42;;;22.70;99.90;;;;;;5130735;28;20043;-88
2022/07/21 12:47:23;;;;;;;2.38;1.48;;;22.90;99.90;;;;;;5130428;28;20047;-88
2022/07/21 12:50:13;;;;;;;4.07;1.73;;;23.00;99.90;;;;;;5131373;28;20077;-87
2022/07/21 12:52:40;;;;;;;1.65;1.20;;;23.10;99.90;;;;;;5131214;28;20043;-89
2022/07/21 12:55:07;;;;;;;1.95;1.15;;;23.30;99.90;;;;;;5130756;28;20569;-89
2022/07/21 12:57:34;;;;;;;2.20;1.23;;;23.40;99.90;;;;;;5114491;28;20047;-89
2022/07/21 13:00:01;;;;;;;2.08;1.40;;;23.50;99.90;;;;;;5114154;28;20951;-88
2022/07/21 13:02:29;;;;;;;1.48;0.90;;;23.60;99.90;;;;;;5147437;28;20047;-90